Detall de PIREP

Printer-friendly versionPDF version

[2013/10/11 10:59:00]
Flight IATA:CT3232
Pilot Number:042
Company ICAO:CAT
Aircraft Type:B738/F
PAX:60
Departing Airport: LEPA
Destination Airport: LEMD
Alternate Airport:LEMG
Online: VATSIM
Route:EPAMA UN733 PRADO
Flight Level:F300
No Slew and time accel
No pause
Crash detect
Detect pilot in Cockpit between each 30 and 45 minutes
10:59 Zero fuel Weight: 121806 Lbs, Fuel Weight: 45493 Lbs
10:59 VATSIM:LEPA 111030Z 06006KT 020V090 9999 FEW026 BKN042 19/13 Q1014 NOSIG
10:59 VATSIM:LEMD 111030Z 28003KT 240V340 CAVOK 18/07 Q1015 NOSIG
10:59 VOICE CATALONIAN
11:04 Parking Brakes off
11:17 Take-off
11:17 Take off Weight: 166232 Lbs
11:17 Wind: 000º @ 000 Knots Heading: 059º
11:17 POS N39º 33´ 28´´ E002º 44´ 01´´
11:18 Gear Up: 181 Knots
11:18 Flaps:3 at 181 Knots
11:18 Flaps:2 at 195 Knots
11:19 Flaps:1 at 200 Knots
11:19 Flaps:0 at 188 Knots
11:33 Wind:270º@025 Knots Heading: 265º Ground Speed: 433 Knots Altitude 28838 ft
11:33 TOC
11:33 Fuel Weight: 40655 Lb
11:48 Wind:270º@025 Knots Heading: 297º Ground Speed: 432 Knots Altitude 29996 ft
11:49 TOD
11:49 Fuel Weight: 38971 Lb
12:03 Wind:270º@022 Knots Heading: 269º Ground Speed: 243 Knots Altitude 12755 ft
12:10 Flaps:1 at 220 Knots
12:10 Flaps:2 at 218 Knots
12:11 Gear Down: 185 Knots
12:11 Gear Up: 182 Knots
12:11 Flaps:3 at 179 Knots
12:12 Flaps:4 at 167 Knots
12:13 Gear Down: 165 Knots
12:13 Flaps:5 at 165 Knots
12:14 Flaps:6 at 156 Knots
12:14 Flaps:7 at 154 Knots
12:17 TouchDown:Rate -58 ft/min Speed: 147 Knots
12:17 VATSIM:LEMD 111200Z 24003G13KT CAVOK 21/06 Q1014 NOSIG
12:17 Land
12:17 Wind:000º@000 Knots
12:17 Heading: 322º
12:17 Flight Duration: 01:00
12:17 Landing Weight: 159433 Lbs
12:17 POS N40º 28´ 30´´ W003º 33´ 58´´
12:28 Parking brakes on
12:28 Block to Block Duration: 01:24
12:28 Final Fuel: 36596 Lbls
12:28 Spent Fuel: 8897 Lbls
12:28 Flight Length: 328 NM
12:28 TOD Land Length: 125 NM

Exportar CSV

Powered by Drupal - Modified by Danger4k